sensor_id;sensor_type;location;lat;lon;timestamp;temperature;humidity
5492;DHT22;2768;53.540;10.224;2023-10-08T00:00:21;12.30;99.90
5492;DHT22;2768;53.540;10.224;2023-10-08T00:06:28;12.30;99.90
5492;DHT22;2768;53.540;10.224;2023-10-08T00:12:22;12.20;99.90
5492;DHT22;2768;53.540;10.224;2023-10-08T00:18:18;12.10;99.90
5492;DHT22;2768;53.540;10.224;2023-10-08T00:24:12;12.10;99.90
5492;DHT22;2768;53.540;10.224;2023-10-08T00:30:07;12.20;99.90
5492;DHT22;2768;53.540;10.224;2023-10-08T00:36:11;12.10;99.90
5492;DHT22;2768;53.540;10.224;2023-10-08T00:42:11;12.20;99.90
5492;DHT22;2768;53.540;10.224;2023-10-08T00:48:05;12.20;99.90
5492;DHT22;2768;53.540;10.224;2023-10-08T00:54:03;12.20;99.90
5492;DHT22;2768;53.540;10.224;2023-10-08T00:59:58;12.30;99.90
5492;DHT22;2768;53.540;10.224;2023-10-08T01:05:53;12.20;99.90
5492;DHT22;2768;53.540;10.224;2023-10-08T01:12:06;12.20;99.90
5492;DHT22;2768;53.540;10.224;2023-10-08T01:18:01;12.20;99.90
5492;DHT22;2768;53.540;10.224;2023-10-08T01:23:58;12.20;99.90
5492;DHT22;2768;53.540;10.224;2023-10-08T01:29:57;12.20;99.90
5492;DHT22;2768;53.540;10.224;2023-10-08T01:36:02;12.20;99.90
5492;DHT22;2768;53.540;10.224;2023-10-08T01:41:57;12.20;99.90
5492;DHT22;2768;53.540;10.224;2023-10-08T01:47:50;12.10;99.90
5492;DHT22;2768;53.540;10.224;2023-10-08T01:53:47;12.10;99.90
5492;DHT22;2768;53.540;10.224;2023-10-08T01:59:42;12.20;99.90
5492;DHT22;2768;53.540;10.224;2023-10-08T02:05:36;12.20;99.90
5492;DHT22;2768;53.540;10.224;2023-10-08T02:11:48;12.10;99.90
5492;DHT22;2768;53.540;10.224;2023-10-08T02:17:44;12.10;99.90
5492;DHT22;2768;53.540;10.224;2023-10-08T02:23:38;12.20;77.40
5492;DHT22;2768;53.540;10.224;2023-10-08T02:29:31;12.20;32.10
5492;DHT22;2768;53.540;10.224;2023-10-08T02:35:26;12.20;20.20
5492;DHT22;2768;53.540;10.224;2023-10-08T02:41:19;12.20;29.60
5492;DHT22;2768;53.540;10.224;2023-10-08T02:47:16;12.30;53.40
5492;DHT22;2768;53.540;10.224;2023-10-08T02:53:14;12.20;59.60
5492;DHT22;2768;53.540;10.224;2023-10-08T02:59:10;12.20;84.10
5492;DHT22;2768;53.540;10.224;2023-10-08T03:05:05;12.20;72.60
5492;DHT22;2768;53.540;10.224;2023-10-08T03:11:01;12.10;42.90
5492;DHT22;2768;53.540;10.224;2023-10-08T03:16:56;12.10;1.00
5492;DHT22;2768;53.540;10.224;2023-10-08T03:22:59;12.10;1.00
5492;DHT22;2768;53.540;10.224;2023-10-08T03:28:56;12.00;1.00
5492;DHT22;2768;53.540;10.224;2023-10-08T03:34:50;12.00;1.00
5492;DHT22;2768;53.540;10.224;2023-10-08T03:40:46;12.00;1.90
5492;DHT22;2768;53.540;10.224;2023-10-08T03:46:43;11.90;1.00
5492;DHT22;2768;53.540;10.224;2023-10-08T03:52:40;11.90;1.00
5492;DHT22;2768;53.540;10.224;2023-10-08T03:58:35;12.00;1.00
5492;DHT22;2768;53.540;10.224;2023-10-08T04:04:34;11.90;1.00
5492;DHT22;2768;53.540;10.224;2023-10-08T04:10:41;12.00;1.00
5492;DHT22;2768;53.540;10.224;2023-10-08T04:17:00;11.90;1.00
5492;DHT22;2768;53.540;10.224;2023-10-08T04:22:54;11.90;1.00
5492;DHT22;2768;53.540;10.224;2023-10-08T04:28:49;12.00;1.00
5492;DHT22;2768;53.540;10.224;2023-10-08T04:34:46;12.00;1.00
5492;DHT22;2768;53.540;10.224;2023-10-08T04:40:43;11.90;1.00
5492;DHT22;2768;53.540;10.224;2023-10-08T04:46:41;11.90;1.00
5492;DHT22;2768;53.540;10.224;2023-10-08T04:52:44;11.80;1.00
5492;DHT22;2768;53.540;10.224;2023-10-08T04:58:51;11.80;1.00
5492;DHT22;2768;53.540;10.224;2023-10-08T05:04:46;11.80;1.00
5492;DHT22;2768;53.540;10.224;2023-10-08T05:10:48;11.70;1.00
5492;DHT22;2768;53.540;10.224;2023-10-08T05:17:08;11.70;1.00
5492;DHT22;2768;53.540;10.224;2023-10-08T05:23:15;11.70;1.00
5492;DHT22;2768;53.540;10.224;2023-10-08T05:29:35;11.70;1.00
5492;DHT22;2768;53.540;10.224;2023-10-08T05:36:02;11.60;1.00
5492;DHT22;2768;53.540;10.224;2023-10-08T05:42:02;11.70;1.00
5492;DHT22;2768;53.540;10.224;2023-10-08T05:48:05;11.70;1.00
5492;DHT22;2768;53.540;10.224;2023-10-08T05:54:07;11.70;1.00
5492;DHT22;2768;53.540;10.224;2023-10-08T06:00:17;11.70;1.00
5492;DHT22;2768;53.540;10.224;2023-10-08T06:06:22;11.60;1.00
5492;DHT22;2768;53.540;10.224;2023-10-08T06:12:19;11.60;1.00
5492;DHT22;2768;53.540;10.224;2023-10-08T06:18:23;11.60;1.00
5492;DHT22;2768;53.540;10.224;2023-10-08T06:24:18;11.70;1.00
5492;DHT22;2768;53.540;10.224;2023-10-08T06:30:15;11.60;1.00
5492;DHT22;2768;53.540;10.224;2023-10-08T06:36:10;11.70;1.00
5492;DHT22;2768;53.540;10.224;2023-10-08T06:42:07;11.60;1.00
5492;DHT22;2768;53.540;10.224;2023-10-08T06:48:03;11.50;1.00
5492;DHT22;2768;53.540;10.224;2023-10-08T06:53:58;11.60;1.00
5492;DHT22;2768;53.540;10.224;2023-10-08T06:59:54;11.60;1.00
5492;DHT22;2768;53.540;10.224;2023-10-08T07:05:50;11.60;1.00
5492;DHT22;2768;53.540;10.224;2023-10-08T07:11:50;11.60;1.00
5492;DHT22;2768;53.540;10.224;2023-10-08T07:17:47;11.50;1.00
5492;DHT22;2768;53.540;10.224;2023-10-08T07:23:44;11.60;1.00
5492;DHT22;2768;53.540;10.224;2023-10-08T07:29:50;11.70;1.00
5492;DHT22;2768;53.540;10.224;2023-10-08T07:35:48;11.70;1.00
5492;DHT22;2768;53.540;10.224;2023-10-08T07:41:50;11.80;1.00
5492;DHT22;2768;53.540;10.224;2023-10-08T07:47:43;11.90;1.00
5492;DHT22;2768;53.540;10.224;2023-10-08T07:53:37;12.00;1.00
5492;DHT22;2768;53.540;10.224;2023-10-08T07:59:32;12.00;1.00
5492;DHT22;2768;53.540;10.224;2023-10-08T08:05:25;12.10;1.00
5492;DHT22;2768;53.540;10.224;2023-10-08T08:11:19;12.20;1.00
5492;DHT22;2768;53.540;10.224;2023-10-08T08:17:19;12.20;1.00
5492;DHT22;2768;53.540;10.224;2023-10-08T08:23:15;12.30;1.00
5492;DHT22;2768;53.540;10.224;2023-10-08T08:29:09;12.40;1.00
5492;DHT22;2768;53.540;10.224;2023-10-08T08:35:10;12.50;1.00
5492;DHT22;2768;53.540;10.224;2023-10-08T08:41:04;12.70;1.00
5492;DHT22;2768;53.540;10.224;2023-10-08T08:47:01;12.70;1.00
5492;DHT22;2768;53.540;10.224;2023-10-08T08:52:58;12.80;1.00
5492;DHT22;2768;53.540;10.224;2023-10-08T08:58:51;12.80;1.00
5492;DHT22;2768;53.540;10.224;2023-10-08T09:04:47;12.90;1.00
5492;DHT22;2768;53.540;10.224;2023-10-08T09:10:44;13.00;1.00
5492;DHT22;2768;53.540;10.224;2023-10-08T09:16:44;13.10;1.00
5492;DHT22;2768;53.540;10.224;2023-10-08T09:22:38;13.20;1.00
5492;DHT22;2768;53.540;10.224;2023-10-08T09:28:33;13.40;1.00
5492;DHT22;2768;53.540;10.224;2023-10-08T09:34:30;13.70;1.00
5492;DHT22;2768;53.540;10.224;2023-10-08T09:40:52;13.90;1.00
5492;DHT22;2768;53.540;10.224;2023-10-08T09:46:52;14.30;1.00
5492;DHT22;2768;53.540;10.224;2023-10-08T09:52:49;14.40;99.90
5492;DHT22;2768;53.540;10.224;2023-10-08T09:58:49;14.90;99.90
5492;DHT22;2768;53.540;10.224;2023-10-08T10:04:44;15.40;99.90
5492;DHT22;2768;53.540;10.224;2023-10-08T10:10:38;15.90;99.90
5492;DHT22;2768;53.540;10.224;2023-10-08T10:16:32;16.00;99.90
5492;DHT22;2768;53.540;10.224;2023-10-08T10:22:32;16.00;99.90
5492;DHT22;2768;53.540;10.224;2023-10-08T10:28:26;15.80;99.90
5492;DHT22;2768;53.540;10.224;2023-10-08T10:34:24;16.00;99.90
5492;DHT22;2768;53.540;10.224;2023-10-08T10:40:21;15.70;99.90
5492;DHT22;2768;53.540;10.224;2023-10-08T10:46:21;16.00;99.90
5492;DHT22;2768;53.540;10.224;2023-10-08T10:52:25;16.60;99.90
5492;DHT22;2768;53.540;10.224;2023-10-08T10:58:27;17.30;99.90
5492;DHT22;2768;53.540;10.224;2023-10-08T11:04:30;17.80;99.90
5492;DHT22;2768;53.540;10.224;2023-10-08T11:10:24;17.80;99.90
5492;DHT22;2768;53.540;10.224;2023-10-08T11:16:23;17.80;99.90
5492;DHT22;2768;53.540;10.224;2023-10-08T11:22:17;18.40;99.90
5492;DHT22;2768;53.540;10.224;2023-10-08T11:28:15;18.70;99.90
5492;DHT22;2768;53.540;10.224;2023-10-08T11:34:11;18.50;99.90
5492;DHT22;2768;53.540;10.224;2023-10-08T11:40:07;18.40;99.90
5492;DHT22;2768;53.540;10.224;2023-10-08T11:46:08;18.10;92.50
5492;DHT22;2768;53.540;10.224;2023-10-08T11:52:11;18.00;93.70
5492;DHT22;2768;53.540;10.224;2023-10-08T11:58:06;17.90;89.80
5492;DHT22;2768;53.540;10.224;2023-10-08T12:04:03;18.10;66.00
5492;DHT22;2768;53.540;10.224;2023-10-08T12:09:58;18.10;58.00
5492;DHT22;2768;53.540;10.224;2023-10-08T12:15:52;18.20;51.90
5492;DHT22;2768;53.540;10.224;2023-10-08T12:21:58;18.50;31.90
5492;DHT22;2768;53.540;10.224;2023-10-08T12:27:56;18.30;29.90
5492;DHT22;2768;53.540;10.224;2023-10-08T12:33:50;18.00;22.30
5492;DHT22;2768;53.540;10.224;2023-10-08T12:39:46;18.30;6.80
5492;DHT22;2768;53.540;10.224;2023-10-08T12:45:54;18.50;1.00
5492;DHT22;2768;53.540;10.224;2023-10-08T12:51:48;18.80;1.00
5492;DHT22;2768;53.540;10.224;2023-10-08T12:57:44;19.00;1.00
5492;DHT22;2768;53.540;10.224;2023-10-08T13:03:46;18.70;1.00
5492;DHT22;2768;53.540;10.224;2023-10-08T13:09:41;18.30;1.00
5492;DHT22;2768;53.540;10.224;2023-10-08T13:15:34;18.10;1.00
5492;DHT22;2768;53.540;10.224;2023-10-08T13:21:29;17.60;1.00
5492;DHT22;2768;53.540;10.224;2023-10-08T13:27:24;17.40;1.00
5492;DHT22;2768;53.540;10.224;2023-10-08T13:33:19;17.10;1.00
5492;DHT22;2768;53.540;10.224;2023-10-08T13:39:13;16.80;1.00
5492;DHT22;2768;53.540;10.224;2023-10-08T13:45:11;16.80;1.00
5492;DHT22;2768;53.540;10.224;2023-10-08T13:51:19;16.60;1.00
5492;DHT22;2768;53.540;10.224;2023-10-08T13:57:19;16.60;1.00
5492;DHT22;2768;53.540;10.224;2023-10-08T14:03:13;16.40;1.00
5492;DHT22;2768;53.540;10.224;2023-10-08T14:09:14;16.30;1.00
5492;DHT22;2768;53.540;10.224;2023-10-08T14:15:15;16.10;1.00
5492;DHT22;2768;53.540;10.224;2023-10-08T14:21:09;16.10;1.00
5492;DHT22;2768;53.540;10.224;2023-10-08T14:27:03;16.10;1.00
5492;DHT22;2768;53.540;10.224;2023-10-08T14:33:03;15.80;1.00
5492;DHT22;2768;53.540;10.224;2023-10-08T14:39:01;15.60;1.00
5492;DHT22;2768;53.540;10.224;2023-10-08T14:45:11;15.50;1.00
5492;DHT22;2768;53.540;10.224;2023-10-08T14:51:07;15.50;1.00
5492;DHT22;2768;53.540;10.224;2023-10-08T14:57:00;15.40;7.90
5492;DHT22;2768;53.540;10.224;2023-10-08T15:02:55;15.40;23.00
5492;DHT22;2768;53.540;10.224;2023-10-08T15:08:49;15.40;31.80
5492;DHT22;2768;53.540;10.224;2023-10-08T15:14:44;15.50;65.40
5492;DHT22;2768;53.540;10.224;2023-10-08T15:20:39;15.40;57.70
5492;DHT22;2768;53.540;10.224;2023-10-08T15:26:35;15.40;58.80
5492;DHT22;2768;53.540;10.224;2023-10-08T15:32:28;15.40;90.50
5492;DHT22;2768;53.540;10.224;2023-10-08T15:38:21;15.40;91.40
5492;DHT22;2768;53.540;10.224;2023-10-08T15:44:16;15.40;99.90
5492;DHT22;2768;53.540;10.224;2023-10-08T15:50:13;15.20;99.90
5492;DHT22;2768;53.540;10.224;2023-10-08T15:56:06;15.20;99.90
5492;DHT22;2768;53.540;10.224;2023-10-08T16:02:01;15.10;99.90
5492;DHT22;2768;53.540;10.224;2023-10-08T16:07:54;15.20;99.90
5492;DHT22;2768;53.540;10.224;2023-10-08T16:13:50;15.20;99.90
5492;DHT22;2768;53.540;10.224;2023-10-08T16:19:45;15.00;99.90
5492;DHT22;2768;53.540;10.224;2023-10-08T16:25:39;14.90;99.90
5492;DHT22;2768;53.540;10.224;2023-10-08T16:31:33;14.90;99.90
5492;DHT22;2768;53.540;10.224;2023-10-08T16:37:34;14.90;99.90
5492;DHT22;2768;53.540;10.224;2023-10-08T16:43:29;14.80;99.90
5492;DHT22;2768;53.540;10.224;2023-10-08T16:49:23;14.90;99.90
5492;DHT22;2768;53.540;10.224;2023-10-08T16:55:20;15.00;99.90
5492;DHT22;2768;53.540;10.224;2023-10-08T17:01:13;14.90;99.90
5492;DHT22;2768;53.540;10.224;2023-10-08T17:07:07;14.80;99.90
5492;DHT22;2768;53.540;10.224;2023-10-08T17:13:01;14.70;99.90
5492;DHT22;2768;53.540;10.224;2023-10-08T17:18:55;14.80;99.90
5492;DHT22;2768;53.540;10.224;2023-10-08T17:24:50;14.90;99.90
5492;DHT22;2768;53.540;10.224;2023-10-08T17:30:44;14.70;99.90
5492;DHT22;2768;53.540;10.224;2023-10-08T17:36:38;14.70;99.90
5492;DHT22;2768;53.540;10.224;2023-10-08T17:42:31;14.60;99.90
5492;DHT22;2768;53.540;10.224;2023-10-08T17:48:26;14.70;99.90
5492;DHT22;2768;53.540;10.224;2023-10-08T17:54:22;14.70;99.90
5492;DHT22;2768;53.540;10.224;2023-10-08T18:00:19;14.60;99.90
5492;DHT22;2768;53.540;10.224;2023-10-08T18:06:15;14.70;99.90
5492;DHT22;2768;53.540;10.224;2023-10-08T18:12:08;14.60;99.90
5492;DHT22;2768;53.540;10.224;2023-10-08T18:18:03;14.60;99.90
5492;DHT22;2768;53.540;10.224;2023-10-08T18:23:59;14.50;99.90
5492;DHT22;2768;53.540;10.224;2023-10-08T18:29:53;14.30;99.90
5492;DHT22;2768;53.540;10.224;2023-10-08T18:35:46;14.50;99.90
5492;DHT22;2768;53.540;10.224;2023-10-08T18:41:41;14.50;99.90
5492;DHT22;2768;53.540;10.224;2023-10-08T18:47:35;14.50;99.90
5492;DHT22;2768;53.540;10.224;2023-10-08T18:53:29;14.50;99.90
5492;DHT22;2768;53.540;10.224;2023-10-08T18:59:25;14.20;99.90
5492;DHT22;2768;53.540;10.224;2023-10-08T19:05:19;14.20;99.90
5492;DHT22;2768;53.540;10.224;2023-10-08T19:11:14;14.30;99.90
5492;DHT22;2768;53.540;10.224;2023-10-08T19:17:10;14.30;99.90
5492;DHT22;2768;53.540;10.224;2023-10-08T19:23:07;14.40;99.90
5492;DHT22;2768;53.540;10.224;2023-10-08T19:29:00;14.30;99.90
5492;DHT22;2768;53.540;10.224;2023-10-08T19:34:55;14.30;99.90
5492;DHT22;2768;53.540;10.224;2023-10-08T19:40:49;14.30;99.90
5492;DHT22;2768;53.540;10.224;2023-10-08T19:46:43;14.30;99.90
5492;DHT22;2768;53.540;10.224;2023-10-08T19:52:37;14.30;99.90
5492;DHT22;2768;53.540;10.224;2023-10-08T19:58:31;14.30;99.90
5492;DHT22;2768;53.540;10.224;2023-10-08T20:04:24;14.30;99.90
5492;DHT22;2768;53.540;10.224;2023-10-08T20:10:19;14.30;99.90
5492;DHT22;2768;53.540;10.224;2023-10-08T20:16:15;14.20;99.90
5492;DHT22;2768;53.540;10.224;2023-10-08T20:22:11;14.20;99.90
5492;DHT22;2768;53.540;10.224;2023-10-08T20:28:06;14.20;99.90
5492;DHT22;2768;53.540;10.224;2023-10-08T20:34:00;14.20;99.90
5492;DHT22;2768;53.540;10.224;2023-10-08T20:39:58;14.00;99.90
5492;DHT22;2768;53.540;10.224;2023-10-08T20:45:53;14.00;99.90
5492;DHT22;2768;53.540;10.224;2023-10-08T20:51:47;13.90;99.90
5492;DHT22;2768;53.540;10.224;2023-10-08T20:57:41;13.80;99.90
5492;DHT22;2768;53.540;10.224;2023-10-08T21:03:37;13.80;99.90
5492;DHT22;2768;53.540;10.224;2023-10-08T21:09:34;13.70;99.90
5492;DHT22;2768;53.540;10.224;2023-10-08T21:15:30;13.70;99.90
5492;DHT22;2768;53.540;10.224;2023-10-08T21:21:27;13.70;99.90
5492;DHT22;2768;53.540;10.224;2023-10-08T21:27:20;13.60;99.90
5492;DHT22;2768;53.540;10.224;2023-10-08T21:33:14;13.70;99.90
5492;DHT22;2768;53.540;10.224;2023-10-08T21:39:09;13.70;99.90
5492;DHT22;2768;53.540;10.224;2023-10-08T21:45:04;13.70;99.90
5492;DHT22;2768;53.540;10.224;2023-10-08T21:50:58;13.70;99.90
5492;DHT22;2768;53.540;10.224;2023-10-08T21:56:53;13.70;99.90
5492;DHT22;2768;53.540;10.224;2023-10-08T22:02:47;13.70;99.90
5492;DHT22;2768;53.540;10.224;2023-10-08T22:08:41;13.70;99.90
5492;DHT22;2768;53.540;10.224;2023-10-08T22:14:42;13.70;99.90
5492;DHT22;2768;53.540;10.224;2023-10-08T22:20:37;13.60;99.90
5492;DHT22;2768;53.540;10.224;2023-10-08T22:26:37;13.50;1.00
5492;DHT22;2768;53.540;10.224;2023-10-08T22:32:33;13.50;1.00
5492;DHT22;2768;53.540;10.224;2023-10-08T22:38:26;13.50;1.00
5492;DHT22;2768;53.540;10.224;2023-10-08T22:44:22;13.50;1.00
5492;DHT22;2768;53.540;10.224;2023-10-08T22:50:17;13.40;1.00
5492;DHT22;2768;53.540;10.224;2023-10-08T22:56:24;13.40;1.00
5492;DHT22;2768;53.540;10.224;2023-10-08T23:02:17;13.40;1.00
5492;DHT22;2768;53.540;10.224;2023-10-08T23:08:12;13.50;1.00
5492;DHT22;2768;53.540;10.224;2023-10-08T23:14:07;13.40;1.00
5492;DHT22;2768;53.540;10.224;2023-10-08T23:20:01;13.40;1.00
5492;DHT22;2768;53.540;10.224;2023-10-08T23:26:00;13.40;1.00
5492;DHT22;2768;53.540;10.224;2023-10-08T23:31:53;13.40;1.00
5492;DHT22;2768;53.540;10.224;2023-10-08T23:37:50;13.30;1.00
5492;DHT22;2768;53.540;10.224;2023-10-08T23:43:58;13.20;1.00
5492;DHT22;2768;53.540;10.224;2023-10-08T23:49:55;13.40;1.00
5492;DHT22;2768;53.540;10.224;2023-10-08T23:56:02;13.30;1.00
